Time;durP1;ratioP1;P1;durP2;ratioP2;P2;SDS_P1;SDS_P2;PMS_P1;PMS_P2;Temp;Humidity;BMP_temperature;BMP_pressure;BME280_temperature;BME280_humidity;BME280_pressure;Samples;Min_cycle;Max_cycle;Signal;HPM_P1;HPM_P2
2021/07/15 00:01:59;;;;;;;1999.90;999.90;;;22.80;70.50;;;;;;5031345;28;20069;-72
2021/07/15 00:04:25;;;;;;;1999.90;999.90;;;22.80;71.30;;;;;;5026138;28;20499;-72
2021/07/15 00:06:51;;;;;;;1999.90;999.90;;;22.70;71.00;;;;;;5031380;28;20018;-72
2021/07/15 00:09:16;;;;;;;1999.90;999.90;;;22.80;71.30;;;;;;5016431;28;20136;-72
2021/07/15 00:11:46;;;;;;;1999.90;999.90;;;22.70;71.40;;;;;;5025027;28;20101;-72
2021/07/15 00:14:12;;;;;;;1999.90;999.90;;;22.60;71.60;;;;;;5020282;28;20119;-72
2021/07/15 00:16:38;;;;;;;1999.90;999.90;;;22.60;71.80;;;;;;5024516;28;20672;-72
2021/07/15 00:19:07;;;;;;;1999.90;999.90;;;22.50;71.90;;;;;;5030799;28;20036;-72
2021/07/15 00:21:33;;;;;;;1999.90;999.90;;;22.50;72.00;;;;;;5021568;28;20025;-72
2021/07/15 00:23:58;;;;;;;1999.90;999.90;;;22.40;72.10;;;;;;5025296;28;20083;-72
2021/07/15 00:26:25;;;;;;;1999.90;999.90;;;22.50;73.00;;;;;;5023348;28;20026;-72
2021/07/15 00:28:51;;;;;;;1999.90;999.90;;;22.40;72.40;;;;;;5028827;28;20478;-72
2021/07/15 00:31:17;;;;;;;1999.90;999.90;;;22.40;72.50;;;;;;5024035;28;20474;-72
2021/07/15 00:33:45;;;;;;;1999.90;999.90;;;22.40;72.70;;;;;;5025712;28;20025;-72
2021/07/15 00:36:11;;;;;;;1999.90;999.90;;;22.30;72.70;;;;;;5026290;28;20020;-72
2021/07/15 00:38:37;;;;;;;1999.90;999.90;;;22.30;72.90;;;;;;5026217;28;20036;-72
2021/07/15 00:41:04;;;;;;;1999.90;999.90;;;22.30;73.00;;;;;;5023996;28;20434;-72
2021/07/15 00:43:29;;;;;;;1999.90;999.90;;;22.30;73.20;;;;;;5030332;28;20087;-72
2021/07/15 00:45:55;;;;;;;1999.90;999.90;;;22.30;73.50;;;;;;5026920;28;20063;-72
2021/07/15 00:48:21;;;;;;;1999.90;999.90;;;22.20;73.60;;;;;;5030863;28;20026;-72
2021/07/15 00:50:46;;;;;;;1999.90;999.90;;;22.20;73.80;;;;;;5023667;28;20108;-72
2021/07/15 00:53:14;;;;;;;1999.90;999.90;;;22.20;74.00;;;;;;5031525;28;20063;-72
2021/07/15 00:55:42;;;;;;;1999.90;999.90;;;22.20;74.20;;;;;;5029112;28;20108;-72
2021/07/15 00:58:10;;;;;;;1999.90;999.90;;;22.10;74.50;;;;;;5025209;28;20030;-72
2021/07/15 01:00:39;;;;;;;1999.90;999.90;;;22.10;74.70;;;;;;5024778;28;20049;-72
2021/07/15 01:03:06;;;;;;;1999.90;999.90;;;22.00;75.00;;;;;;5033938;28;20036;-72
2021/07/15 01:05:35;;;;;;;1999.90;999.90;;;22.00;75.30;;;;;;5026090;28;20029;-72
2021/07/15 01:08:04;;;;;;;1999.90;999.90;;;22.00;75.60;;;;;;5022763;28;20096;-71
2021/07/15 01:10:38;;;;;;;1999.90;999.90;;;21.90;75.90;;;;;;5029676;28;20041;-72
2021/07/15 01:13:03;;;;;;;1999.90;999.90;;;21.90;76.00;;;;;;5032404;28;20079;-72
2021/07/15 01:15:47;;;;;;;1999.90;999.90;;;21.80;76.00;;;;;;5030195;28;20025;-72
2021/07/15 01:18:30;;;;;;;1999.90;999.90;;;21.80;76.10;;;;;;5025422;28;20097;-72
2021/07/15 01:21:13;;;;;;;1999.90;999.90;;;21.80;76.20;;;;;;5031892;28;20070;-72
2021/07/15 01:24:05;;;;;;;1999.90;999.90;;;21.70;76.20;;;;;;5022656;28;20025;-72
2021/07/15 01:26:42;;;;;;;1999.90;999.90;;;21.70;76.40;;;;;;5030982;28;20033;-72
2021/07/15 01:29:18;;;;;;;1999.90;999.90;;;21.60;76.50;;;;;;5033262;28;20018;-72
2021/07/15 01:31:49;;;;;;;1999.90;999.90;;;21.60;76.60;;;;;;5033189;28;20121;-72
2021/07/15 01:34:16;;;;;;;1999.90;999.90;;;21.60;76.70;;;;;;5020286;28;20096;-72
2021/07/15 01:36:46;;;;;;;1999.90;999.90;;;21.50;76.90;;;;;;5026673;28;20024;-72
2021/07/15 01:39:15;;;;;;;1999.90;999.90;;;21.50;77.10;;;;;;5031416;28;20029;-72
2021/07/15 01:41:46;;;;;;;1999.90;999.90;;;21.50;77.20;;;;;;5028966;28;20017;-72
2021/07/15 01:44:18;;;;;;;1999.90;999.90;;;21.50;77.10;;;;;;5032574;28;20026;-73
2021/07/15 01:46:44;;;;;;;1999.90;999.90;;;21.50;76.80;;;;;;5032928;28;20021;-73
2021/07/15 01:49:11;;;;;;;1999.90;999.90;;;21.50;76.80;;;;;;5024000;28;20102;-73
2021/07/15 01:51:38;;;;;;;1999.90;999.90;;;21.50;76.70;;;;;;5016414;28;20026;-73
2021/07/15 01:54:06;;;;;;;1999.90;999.90;;;21.50;76.60;;;;;;5017282;28;20067;-75
2021/07/15 01:56:36;;;;;;;1999.90;999.90;;;21.50;76.10;;;;;;5029182;28;20071;-75
2021/07/15 01:59:02;;;;;;;1999.90;999.90;;;21.60;75.60;;;;;;5031249;28;20154;-75
2021/07/15 02:01:29;;;;;;;1999.90;999.90;;;21.60;75.30;;;;;;5019521;28;20046;-75
2021/07/15 02:03:57;;;;;;;1999.90;999.90;;;21.70;75.00;;;;;;5023873;28;20022;-76
2021/07/15 02:06:25;;;;;;;1999.90;999.90;;;21.70;74.50;;;;;;5018097;28;20475;-75
2021/07/15 02:08:55;;;;;;;1999.90;999.90;;;21.80;74.10;;;;;;5027087;28;20048;-75
2021/07/15 02:11:22;;;;;;;1999.90;999.90;;;21.80;73.80;;;;;;5024179;28;20494;-75
2021/07/15 02:13:49;;;;;;;1999.90;999.90;;;21.90;73.90;;;;;;5032963;28;20029;-75
2021/07/15 02:16:17;;;;;;;1999.90;999.90;;;21.90;73.60;;;;;;5025659;28;20398;-75
2021/07/15 02:18:45;;;;;;;1999.90;999.90;;;21.90;73.80;;;;;;5030134;28;20025;-75
2021/07/15 02:21:11;;;;;;;1999.90;999.90;;;21.90;73.70;;;;;;5023762;28;20036;-74
2021/07/15 02:23:37;;;;;;;1999.90;999.90;;;21.90;73.60;;;;;;5028232;28;20034;-76
2021/07/15 02:26:05;;;;;;;1999.90;999.90;;;21.90;73.80;;;;;;5021748;28;20018;-75
2021/07/15 02:28:33;;;;;;;1999.90;999.90;;;22.00;73.80;;;;;;5020861;28;20032;-75
2021/07/15 02:44:47;;;;;;;1999.90;999.90;;;22.10;73.80;;;;;;5028859;28;20083;-75
2021/07/15 02:47:13;;;;;;;1999.90;999.90;;;22.10;74.00;;;;;;5030549;28;20219;-75
2021/07/15 02:49:43;;;;;;;1999.90;999.90;;;22.10;74.10;;;;;;5019404;28;20038;-75
2021/07/15 02:52:10;;;;;;;1999.90;999.90;;;22.20;74.10;;;;;;5012229;28;20507;-74
2021/07/15 02:54:37;;;;;;;1999.90;999.90;;;22.20;74.10;;;;;;5028715;28;20180;-75
2021/07/15 02:57:23;;;;;;;1999.90;999.90;;;22.30;74.20;;;;;;5029870;28;20045;-75
2021/07/15 02:59:52;;;;;;;1999.90;999.90;;;22.30;74.00;;;;;;5025774;28;20068;-75
2021/07/15 03:02:31;;;;;;;1999.90;999.90;;;22.30;74.20;;;;;;5025496;28;20466;-75
2021/07/15 03:05:00;;;;;;;1999.90;999.90;;;22.40;74.00;;;;;;5052299;28;20032;-75
2021/07/15 03:07:29;;;;;;;1999.90;999.90;;;22.40;74.00;;;;;;5059728;28;20036;-75
2021/07/15 03:09:56;;;;;;;1999.90;999.90;;;22.50;73.90;;;;;;5048800;28;20032;-76
2021/07/15 03:12:24;;;;;;;1999.90;999.90;;;22.50;73.70;;;;;;5052695;28;20048;-75
2021/07/15 03:14:53;;;;;;;1999.90;999.90;;;22.60;73.40;;;;;;5063433;28;20112;-75
2021/07/15 03:17:34;;;;;;;1999.90;999.90;;;22.70;72.90;;;;;;5067351;28;20051;-76
2021/07/15 03:20:04;;;;;;;1999.90;999.90;;;22.80;72.60;;;;;;5052907;28;20143;-75
2021/07/15 03:22:32;;;;;;;1999.90;999.90;;;22.80;72.20;;;;;;5079317;28;20024;-75
2021/07/15 03:25:02;;;;;;;1999.90;999.90;;;22.90;71.90;;;;;;5071959;28;20016;-75
2021/07/15 03:27:30;;;;;;;1999.90;999.90;;;22.90;71.50;;;;;;5052749;28;20115;-74
2021/07/15 03:29:58;;;;;;;1999.90;999.90;;;23.00;71.00;;;;;;5069805;28;20032;-75
2021/07/15 03:32:25;;;;;;;1999.90;999.90;;;23.10;70.90;;;;;;5071439;28;20033;-73
2021/07/15 03:34:52;;;;;;;1999.90;999.90;;;23.20;70.50;;;;;;5070921;28;20043;-75
2021/07/15 03:37:18;;;;;;;1999.90;999.90;;;23.20;70.20;;;;;;5049805;28;20745;-75
2021/07/15 03:39:49;;;;;;;1999.90;999.90;;;23.20;70.00;;;;;;5067415;28;20223;-75
2021/07/15 03:42:16;;;;;;;1999.90;999.90;;;23.30;69.70;;;;;;5065727;28;20029;-75
2021/07/15 03:44:44;;;;;;;1999.90;999.90;;;23.40;69.40;;;;;;5071086;28;20021;-75
2021/07/15 03:47:11;;;;;;;1999.90;999.90;;;23.50;69.10;;;;;;5070723;28;20017;-75
2021/07/15 03:49:38;;;;;;;1999.90;999.90;;;23.60;68.80;;;;;;5071539;28;20151;-75
2021/07/15 03:52:04;;;;;;;1999.90;999.90;;;23.60;68.70;;;;;;5064514;28;20021;-74
2021/07/15 03:54:30;;;;;;;1999.90;999.90;;;23.70;68.70;;;;;;5062244;28;20033;-75
2021/07/15 03:56:57;;;;;;;1999.90;999.90;;;23.70;68.30;;;;;;5067378;28;20094;-75
2021/07/15 03:59:26;;;;;;;1999.90;999.90;;;23.80;68.20;;;;;;5070800;28;20478;-75
2021/07/15 04:02:03;;;;;;;1999.90;999.90;;;23.90;68.00;;;;;;5068733;28;20094;-75
2021/07/15 04:04:30;;;;;;;1999.90;999.90;;;23.90;67.70;;;;;;5067712;28;20493;-75
2021/07/15 04:06:59;;;;;;;1999.90;999.90;;;24.00;67.60;;;;;;5068667;28;20408;-75
2021/07/15 04:09:26;;;;;;;1999.90;999.90;;;24.10;67.30;;;;;;5043315;28;20029;-75
2021/07/15 04:11:53;;;;;;;1999.90;999.90;;;24.20;67.10;;;;;;5068828;28;20382;-75
2021/07/15 04:14:46;;;;;;;1999.90;999.90;;;24.30;66.20;;;;;;5068680;28;20044;-75
2021/07/15 04:17:14;;;;;;;1999.90;999.90;;;24.40;66.10;;;;;;5069206;28;20378;-75
2021/07/15 04:19:41;;;;;;;1999.90;999.90;;;24.50;64.50;;;;;;5053411;28;20029;-74
2021/07/15 04:22:09;;;;;;;1999.90;999.90;;;24.60;64.30;;;;;;5059134;28;20526;-75
2021/07/15 04:24:38;;;;;;;1999.90;999.90;;;24.70;64.40;;;;;;5054637;28;20028;-75
2021/07/15 04:27:06;;;;;;;1999.90;999.90;;;24.70;64.20;;;;;;5054894;28;20024;-76
2021/07/15 04:29:33;;;;;;;1999.90;999.90;;;24.80;63.90;;;;;;5074642;28;20013;-76
2021/07/15 04:32:26;;;;;;;1999.90;999.90;;;24.90;63.40;;;;;;5075211;28;20021;-75
2021/07/15 04:34:53;;;;;;;1999.90;999.90;;;24.90;63.20;;;;;;5063354;28;20044;-73
2021/07/15 04:37:20;;;;;;;1999.90;999.90;;;25.00;63.10;;;;;;5069723;28;20138;-75
2021/07/15 04:39:47;;;;;;;1999.90;999.90;;;25.10;62.80;;;;;;5074760;28;20024;-76
2021/07/15 04:42:16;;;;;;;1999.90;999.90;;;25.20;62.30;;;;;;5064095;28;20560;-75
2021/07/15 04:44:45;;;;;;;1999.90;999.90;;;25.30;62.10;;;;;;5055065;28;20024;-75
2021/07/15 04:47:13;;;;;;;1999.90;999.90;;;25.40;61.60;;;;;;5068679;28;20078;-76
2021/07/15 04:49:39;;;;;;;1999.90;999.90;;;25.50;61.20;;;;;;5073839;28;20466;-75
2021/07/15 04:52:07;;;;;;;1999.90;999.90;;;25.60;59.20;;;;;;5070265;28;20392;-75
2021/07/15 04:54:35;;;;;;;1999.90;999.90;;;25.70;58.50;;;;;;5066155;28;20354;-75
2021/07/15 04:57:02;;;;;;;1999.90;999.90;;;25.90;56.90;;;;;;5053661;28;20250;-75
2021/07/15 04:59:28;;;;;;;1999.90;999.90;;;25.90;56.50;;;;;;5065861;28;20021;-75
2021/07/15 05:01:54;;;;;;;1999.90;999.90;;;26.00;55.80;;;;;;5052860;28;20383;-75
2021/07/15 05:04:20;;;;;;;1999.90;999.90;;;26.10;55.20;;;;;;5065102;28;20079;-75
2021/07/15 05:06:46;;;;;;;1999.90;999.90;;;26.20;55.30;;;;;;5070492;28;20099;-75
2021/07/15 05:09:12;;;;;;;1999.90;999.90;;;26.20;55.70;;;;;;5064858;28;20115;-75
2021/07/15 05:11:37;;;;;;;1999.90;999.90;;;26.30;55.90;;;;;;5070478;28;20025;-75
2021/07/15 05:14:04;;;;;;;1999.90;999.90;;;26.30;56.10;;;;;;5070024;28;20044;-75
2021/07/15 05:16:30;;;;;;;1999.90;999.90;;;26.40;57.00;;;;;;5066911;28;20048;-75
2021/07/15 05:18:57;;;;;;;1999.90;999.90;;;26.50;56.40;;;;;;5070575;28;20078;-75
2021/07/15 05:21:22;;;;;;;1999.90;999.90;;;26.50;56.50;;;;;;5048398;28;20028;-75
2021/07/15 05:23:48;;;;;;;1999.90;999.90;;;26.60;56.70;;;;;;5051992;28;20431;-74
2021/07/15 05:26:15;;;;;;;1999.90;999.90;;;26.70;56.60;;;;;;5065893;28;20035;-75
2021/07/15 05:28:41;;;;;;;1999.90;999.90;;;26.80;56.70;;;;;;5049979;28;20115;-75
2021/07/15 05:31:07;;;;;;;1999.90;999.90;;;26.90;56.80;;;;;;5061987;28;20083;-74
2021/07/15 05:33:33;;;;;;;1999.90;999.90;;;27.10;56.70;;;;;;5060039;28;20056;-75
2021/07/15 05:35:59;;;;;;;1999.90;999.90;;;27.10;56.80;;;;;;5064479;28;20033;-74
2021/07/15 05:38:25;;;;;;;1999.90;999.90;;;27.20;56.80;;;;;;5062800;28;20040;-75
2021/07/15 05:40:51;;;;;;;1999.90;999.90;;;27.30;56.60;;;;;;5064346;28;20036;-74
2021/07/15 05:43:16;;;;;;;1999.90;999.90;;;27.50;56.10;;;;;;5063365;28;20033;-76
2021/07/15 05:45:42;;;;;;;1999.90;999.90;;;27.50;56.00;;;;;;5050444;28;20036;-75
2021/07/15 05:48:09;;;;;;;1999.90;999.90;;;27.60;55.90;;;;;;5042039;28;20056;-73
2021/07/15 05:50:35;;;;;;;1999.90;999.90;;;27.70;55.80;;;;;;5057162;28;20090;-74
2021/07/15 05:53:01;;;;;;;1999.90;999.90;;;27.70;55.40;;;;;;5054972;28;20024;-76
2021/07/15 05:55:26;;;;;;;1999.90;999.90;;;27.80;55.10;;;;;;5038042;28;20067;-73
2021/07/15 05:57:52;;;;;;;1999.90;999.90;;;27.90;55.40;;;;;;5031492;28;20119;-74
2021/07/15 06:00:18;;;;;;;1999.90;999.90;;;28.00;55.30;;;;;;5056336;28;20067;-74
2021/07/15 06:02:44;;;;;;;1999.90;999.90;;;28.10;54.90;;;;;;5054763;28;20059;-73
2021/07/15 06:05:09;;;;;;;1999.90;999.90;;;28.20;54.80;;;;;;5023599;28;20100;-73
2021/07/15 06:07:37;;;;;;;1999.90;999.90;;;28.40;54.90;;;;;;5030528;28;20397;-73
2021/07/15 06:10:05;;;;;;;1999.90;999.90;;;28.40;54.80;;;;;;5057253;28;20093;-74
2021/07/15 06:12:31;;;;;;;1999.90;999.90;;;28.50;54.20;;;;;;5056486;28;20043;-73
2021/07/15 06:14:56;;;;;;;1999.90;999.90;;;28.70;53.20;;;;;;5058390;28;20036;-74
2021/07/15 06:17:22;;;;;;;1999.90;999.90;;;28.70;52.90;;;;;;5059430;28;20028;-72
2021/07/15 06:19:48;;;;;;;1999.90;999.90;;;28.70;52.70;;;;;;5052276;28;20066;-73
2021/07/15 06:22:14;;;;;;;1999.90;999.90;;;28.80;52.00;;;;;;5033372;28;20040;-73
2021/07/15 06:24:40;;;;;;;1999.90;999.90;;;28.90;51.60;;;;;;5056675;28;20352;-71
2021/07/15 06:27:06;;;;;;;1999.90;999.90;;;29.00;51.30;;;;;;5054704;28;20044;-72
2021/07/15 06:29:31;;;;;;;1999.90;999.90;;;29.00;51.20;;;;;;5046874;28;20396;-72
2021/07/15 06:31:57;;;;;;;1999.90;999.90;;;29.10;50.80;;;;;;5040674;28;20036;-74
2021/07/15 06:34:23;;;;;;;1999.90;999.90;;;29.20;50.90;;;;;;5051944;28;20035;-73
2021/07/15 06:36:49;;;;;;;1999.90;999.90;;;29.30;50.90;;;;;;5022796;28;20139;-73
2021/07/15 06:39:15;;;;;;;1999.90;999.90;;;29.40;50.60;;;;;;5054725;28;20727;-74
2021/07/15 06:41:40;;;;;;;1999.90;999.90;;;29.50;50.60;;;;;;5048583;28;20482;-73
2021/07/15 06:44:09;;;;;;;1999.90;999.90;;;29.50;50.40;;;;;;5052374;28;20052;-75
2021/07/15 06:46:37;;;;;;;1999.90;999.90;;;29.50;50.50;;;;;;5027301;28;20029;-75
2021/07/15 06:49:03;;;;;;;1999.90;999.90;;;29.60;50.30;;;;;;5034598;28;20031;-74
2021/07/15 06:51:29;;;;;;;1999.90;999.90;;;29.70;50.50;;;;;;5051369;28;20029;-73
2021/07/15 06:53:54;;;;;;;1999.90;999.90;;;29.80;51.10;;;;;;5052770;28;20047;-74
2021/07/15 06:56:20;;;;;;;1999.90;999.90;;;29.90;50.80;;;;;;5038301;28;20028;-75
2021/07/15 06:58:46;;;;;;;1999.90;999.90;;;30.00;50.00;;;;;;5052502;28;20054;-74
2021/07/15 07:01:12;;;;;;;1999.90;999.90;;;30.10;49.80;;;;;;5049009;28;20045;-74
2021/07/15 07:03:38;;;;;;;1999.90;999.90;;;30.20;49.40;;;;;;5052642;28;20709;-73
2021/07/15 07:06:04;;;;;;;1999.90;999.90;;;30.30;49.60;;;;;;5049371;28;20029;-75
2021/07/15 07:08:29;;;;;;;1999.90;999.90;;;30.40;49.80;;;;;;5047635;28;20025;-75
2021/07/15 07:10:55;;;;;;;1999.90;999.90;;;30.50;49.10;;;;;;5045542;28;20032;-76
2021/07/15 07:13:21;;;;;;;1999.90;999.90;;;30.50;49.30;;;;;;5023404;28;20101;-73
2021/07/15 07:15:47;;;;;;;1999.90;999.90;;;30.50;49.10;;;;;;5047262;28;20033;-73
2021/07/15 07:18:12;;;;;;;1999.90;999.90;;;30.70;48.20;;;;;;5031920;28;20043;-74
2021/07/15 07:20:38;;;;;;;1999.90;999.90;;;30.70;47.40;;;;;;5034212;28;20087;-75
2021/07/15 07:23:12;;;;;;;1999.90;999.90;;;30.80;48.00;;;;;;5050666;28;20027;-73
2021/07/15 07:25:39;;;;;;;1999.90;999.90;;;30.90;47.80;;;;;;5037408;28;20102;-72
2021/07/15 07:28:04;;;;;;;1999.90;999.90;;;30.90;46.90;;;;;;5045297;28;20116;-75
2021/07/15 07:30:30;;;;;;;1999.90;999.90;;;31.00;47.20;;;;;;5045748;28;21248;-74
2021/07/15 07:32:56;;;;;;;1999.90;999.90;;;31.00;47.20;;;;;;5044630;28;20116;-74
2021/07/15 07:35:23;;;;;;;1999.90;999.90;;;31.20;46.60;;;;;;5044529;28;20506;-74
2021/07/15 07:37:48;;;;;;;1999.90;999.90;;;31.30;46.50;;;;;;5048465;28;20024;-74
2021/07/15 07:40:16;;;;;;;1999.90;999.90;;;31.40;46.60;;;;;;5050047;28;20078;-74
2021/07/15 07:42:43;;;;;;;1999.90;999.90;;;31.60;46.60;;;;;;5044064;28;20111;-73
2021/07/15 07:45:10;;;;;;;1999.90;999.90;;;31.70;46.20;;;;;;5041505;28;21585;-73
2021/07/15 07:47:36;;;;;;;1999.90;999.90;;;31.80;45.00;;;;;;5036529;28;20663;-73
2021/07/15 07:50:05;;;;;;;1999.90;999.90;;;31.80;45.00;;;;;;5033992;28;20016;-73
2021/07/15 07:52:30;;;;;;;1999.90;999.90;;;31.80;45.20;;;;;;5043872;28;20047;-74
2021/07/15 07:54:56;;;;;;;1999.90;999.90;;;31.80;45.40;;;;;;5022716;28;20028;-73
2021/07/15 07:57:22;;;;;;;1999.90;999.90;;;31.90;45.60;;;;;;5025818;28;20029;-73
2021/07/15 07:59:47;;;;;;;1999.90;999.90;;;31.90;46.00;;;;;;5042187;28;20044;-73
2021/07/15 08:02:13;;;;;;;1999.90;999.90;;;32.20;45.80;;;;;;5043965;28;20177;-73
2021/07/15 08:04:40;;;;;;;1999.90;999.90;;;32.20;45.20;;;;;;5041314;28;20052;-72
2021/07/15 08:07:11;;;;;;;1999.90;999.90;;;32.30;45.30;;;;;;5029912;28;20028;-73
2021/07/15 08:09:43;;;;;;;1999.90;999.90;;;32.30;45.80;;;;;;5046817;28;20035;-72
2021/07/15 08:12:09;;;;;;;;;;;32.40;45.60;;;;;;5030574;28;20033;-73
2021/07/15 08:14:35;;;;;;;1999.90;999.90;;;32.40;45.90;;;;;;5045964;28;19916;-75
2021/07/15 08:17:01;;;;;;;1999.90;999.90;;;32.50;46.20;;;;;;5044286;28;20069;-76
2021/07/15 08:19:27;;;;;;;1999.90;999.90;;;32.60;45.80;;;;;;5044885;28;20043;-74
2021/07/15 08:21:54;;;;;;;1999.90;999.90;;;32.70;45.80;;;;;;5043441;28;20052;-75
2021/07/15 08:24:20;;;;;;;1999.90;999.90;;;32.80;44.90;;;;;;5023522;28;25024;-73
2021/07/15 08:26:46;;;;;;;1999.90;999.90;;;32.90;44.50;;;;;;5043651;28;20021;-76
2021/07/15 08:29:11;;;;;;;1999.90;999.90;;;32.90;43.90;;;;;;5036236;28;20162;-75
2021/07/15 08:31:37;;;;;;;1999.90;999.90;;;33.00;43.50;;;;;;5044171;28;20051;-73
2021/07/15 08:34:03;;;;;;;1999.90;999.90;;;33.10;43.60;;;;;;5041604;28;20040;-72
2021/07/15 08:36:31;;;;;;;1999.90;999.90;;;33.20;42.50;;;;;;5025485;28;20068;-73
2021/07/15 08:38:58;;;;;;;1999.90;999.90;;;33.30;42.10;;;;;;5039289;28;20024;-74
2021/07/15 08:41:24;;;;;;;1999.90;999.90;;;33.30;42.60;;;;;;5043954;28;20035;-74
2021/07/15 08:43:50;;;;;;;1999.90;999.90;;;33.30;42.60;;;;;;5048543;28;20470;-76
2021/07/15 08:46:17;;;;;;;1999.90;999.90;;;33.50;42.20;;;;;;5022206;28;20033;-79
2021/07/15 08:48:46;;;;;;;1999.90;999.90;;;33.60;42.20;;;;;;5044590;28;20043;-73
2021/07/15 08:51:13;;;;;;;1999.90;999.90;;;33.60;42.00;;;;;;5042585;28;20482;-74
2021/07/15 08:53:39;;;;;;;1999.90;999.90;;;33.60;41.30;;;;;;5022939;28;20039;-75
2021/07/15 08:58:50;;;;;;;1999.90;999.90;;;33.60;41.90;;;;;;5038925;28;21772;-75
2021/07/15 09:01:16;;;;;;;1999.90;999.90;;;33.70;41.90;;;;;;5043795;28;20076;-73
2021/07/15 09:03:42;;;;;;;1999.90;999.90;;;33.70;42.00;;;;;;5026015;28;20809;-71
2021/07/15 09:06:08;;;;;;;1999.90;999.90;;;33.80;42.90;;;;;;5027534;28;20029;-72
2021/07/15 09:08:34;;;;;;;1999.90;999.90;;;33.80;43.60;;;;;;5030643;28;20028;-72
2021/07/15 09:11:02;;;;;;;1999.90;999.90;;;33.90;44.10;;;;;;5051182;28;20021;-71
2021/07/15 09:13:28;;;;;;;1999.90;999.90;;;34.00;43.90;;;;;;5044855;28;20504;-71
2021/07/15 09:15:54;;;;;;;1999.90;999.90;;;34.00;43.70;;;;;;5028929;28;20123;-72
2021/07/15 09:18:20;;;;;;;1999.90;999.90;;;34.10;44.10;;;;;;5049076;28;20039;-72
2021/07/15 09:20:46;;;;;;;1999.90;999.90;;;34.20;43.90;;;;;;5045619;28;20032;-73
2021/07/15 09:23:14;;;;;;;1999.90;999.90;;;34.20;43.60;;;;;;5050222;28;20059;-74
2021/07/15 09:25:40;;;;;;;1999.90;999.90;;;34.30;43.30;;;;;;5025122;28;21064;-71
2021/07/15 09:28:11;;;;;;;1999.90;999.90;;;34.30;42.80;;;;;;5047338;28;20126;-73
2021/07/15 09:30:39;;;;;;;1999.90;999.90;;;34.30;43.20;;;;;;5048021;28;20020;-71
2021/07/15 09:33:08;;;;;;;1999.90;999.90;;;34.30;43.30;;;;;;5046700;28;20628;-73
2021/07/15 09:35:46;;;;;;;1999.90;999.90;;;34.30;43.40;;;;;;5048918;28;20071;-73
2021/07/15 09:38:21;;;;;;;1999.90;999.90;;;34.40;43.90;;;;;;5032021;28;20585;-72
2021/07/15 09:40:57;;;;;;;1999.90;999.90;;;34.40;44.20;;;;;;5028500;28;20063;-71
2021/07/15 09:43:28;;;;;;;1999.90;999.90;;;34.50;44.50;;;;;;5046548;28;20063;-71
2021/07/15 09:45:59;;;;;;;1999.90;999.90;;;34.60;44.50;;;;;;5017708;28;20021;-72
2021/07/15 09:48:30;;;;;;;1999.90;999.90;;;34.60;44.60;;;;;;5043123;28;21692;-72
2021/07/15 09:50:58;;;;;;;1999.90;999.90;;;34.70;44.50;;;;;;5047910;28;20107;-72
2021/07/15 09:53:33;;;;;;;1999.90;999.90;;;34.60;44.70;;;;;;5044407;28;20047;-72
2021/07/15 09:56:06;;;;;;;1999.90;999.90;;;34.60;44.70;;;;;;5045497;28;20024;-72
2021/07/15 09:58:37;;;;;;;1999.90;999.90;;;34.70;44.70;;;;;;5040630;28;20036;-73
2021/07/15 10:01:08;;;;;;;1999.90;999.90;;;34.70;44.60;;;;;;5043242;28;20094;-72
2021/07/15 10:03:40;;;;;;;;;;;34.70;44.30;;;;;;5022959;28;20032;-73
2021/07/15 10:06:06;;;;;;;1999.90;999.90;;;34.60;44.20;;;;;;5048093;28;19973;-73
2021/07/15 10:08:34;;;;;;;1999.90;999.90;;;34.60;44.10;;;;;;5033726;28;20043;-73
2021/07/15 10:11:16;;;;;;;1999.90;999.90;;;34.60;43.90;;;;;;5047940;28;20024;-73
2021/07/15 10:13:43;;;;;;;1999.90;999.90;;;34.70;44.00;;;;;;5056268;28;20016;-72
2021/07/15 10:16:09;;;;;;;1999.90;999.90;;;34.80;43.90;;;;;;5030930;28;20040;-72
2021/07/15 10:18:42;;;;;;;1999.90;999.90;;;34.80;43.40;;;;;;5053167;28;20056;-73
2021/07/15 10:21:10;;;;;;;1999.90;999.90;;;34.80;43.20;;;;;;5052673;28;20071;-72
2021/07/15 10:23:44;;;;;;;1999.90;999.90;;;34.80;43.20;;;;;;5054617;28;20052;-73
2021/07/15 10:26:11;;;;;;;1999.90;999.90;;;34.80;42.80;;;;;;5048894;28;20020;-73
2021/07/15 10:28:42;;;;;;;1999.90;999.90;;;34.80;42.90;;;;;;5050056;28;20069;-73
2021/07/15 10:31:08;;;;;;;1999.90;999.90;;;34.90;43.00;;;;;;5052651;28;20516;-72
2021/07/15 10:33:35;;;;;;;1999.90;999.90;;;35.00;42.70;;;;;;5046048;28;20077;-72
2021/07/15 10:36:03;;;;;;;1999.90;999.90;;;34.90;42.40;;;;;;5033555;28;21077;-72
2021/07/15 10:38:30;;;;;;;1999.90;999.90;;;35.00;42.40;;;;;;5030305;28;20710;-72
2021/07/15 10:40:57;;;;;;;1999.90;999.90;;;34.90;42.30;;;;;;5034463;28;20031;-72
2021/07/15 10:43:24;;;;;;;1999.90;999.90;;;35.00;42.20;;;;;;5029528;28;20071;-73
2021/07/15 10:45:51;;;;;;;1999.90;999.90;;;35.00;42.10;;;;;;5049773;28;20040;-75
2021/07/15 10:48:18;;;;;;;1999.90;999.90;;;35.00;42.20;;;;;;5054328;28;20147;-73
2021/07/15 10:50:44;;;;;;;1999.90;999.90;;;35.10;42.20;;;;;;5041251;28;20040;-73
2021/07/15 10:53:12;;;;;;;1999.90;999.90;;;35.10;42.40;;;;;;5046687;28;20028;-72
2021/07/15 10:55:38;;;;;;;1999.90;999.90;;;35.10;42.00;;;;;;5022648;28;20120;-72
2021/07/15 10:58:04;;;;;;;1999.90;999.90;;;35.10;42.10;;;;;;5023143;28;20384;-72
2021/07/15 11:00:30;;;;;;;1999.90;999.90;;;35.10;42.10;;;;;;5041151;28;20053;-73
2021/07/15 11:03:20;;;;;;;1999.90;999.90;;;35.10;42.00;;;;;;5036270;28;21375;-73
2021/07/15 11:05:55;;;;;;;1999.90;999.90;;;35.10;42.70;;;;;;5040334;28;20043;-73
2021/07/15 11:08:48;;;;;;;1999.90;999.90;;;35.10;42.70;;;;;;5028168;28;20025;-73
2021/07/15 11:11:16;;;;;;;1999.90;999.90;;;35.10;42.80;;;;;;5038187;28;20024;-73
2021/07/15 11:13:44;;;;;;;1999.90;999.90;;;35.10;42.70;;;;;;5026537;28;20037;-73
2021/07/15 11:16:10;;;;;;;1999.90;999.90;;;35.10;42.60;;;;;;5040968;28;20028;-73
2021/07/15 11:18:40;;;;;;;1999.90;999.90;;;35.20;42.20;;;;;;5032114;28;20159;-73
2021/07/15 11:21:25;;;;;;;1999.90;999.90;;;35.20;42.10;;;;;;5008987;28;20071;-73
2021/07/15 11:23:52;;;;;;;1999.90;999.90;;;35.20;42.40;;;;;;5034887;28;20021;-72
2021/07/15 11:26:34;;;;;;;1999.90;999.90;;;35.20;42.20;;;;;;5039144;28;20037;-73
2021/07/15 11:29:00;;;;;;;1999.90;999.90;;;35.20;42.50;;;;;;5044129;28;20035;-72
2021/07/15 11:31:45;;;;;;;1999.90;999.90;;;35.20;42.30;;;;;;5042401;28;20037;-72
2021/07/15 11:34:35;;;;;;;1999.90;999.90;;;35.30;41.90;;;;;;5011255;28;20300;-73
2021/07/15 11:37:32;;;;;;;1999.90;999.90;;;35.30;42.40;;;;;;5037647;28;20028;-72
2021/07/15 11:39:59;;;;;;;1999.90;999.90;;;35.30;42.20;;;;;;5039149;28;20460;-73
2021/07/15 11:42:26;;;;;;;1999.90;999.90;;;35.30;42.20;;;;;;5047876;28;20039;-75
2021/07/15 11:44:59;;;;;;;1999.90;999.90;;;35.30;42.30;;;;;;5028040;28;20051;-73
2021/07/15 11:47:51;;;;;;;1999.90;999.90;;;35.40;41.90;;;;;;5042565;28;20052;-73
2021/07/15 11:50:31;;;;;;;1999.90;999.90;;;35.40;42.30;;;;;;5046125;28;20020;-72
2021/07/15 11:53:16;;;;;;;1999.90;999.90;;;35.50;42.20;;;;;;5026495;28;20032;-72
2021/07/15 11:55:43;;;;;;;1999.90;999.90;;;35.60;42.10;;;;;;5036658;28;20456;-72
2021/07/15 11:58:28;;;;;;;1999.90;999.90;;;35.50;41.90;;;;;;5046440;28;20926;-72
2021/07/15 12:01:16;;;;;;;1999.90;999.90;;;35.50;42.10;;;;;;5034553;28;20372;-73
2021/07/15 12:04:01;;;;;;;1999.90;999.90;;;35.60;41.40;;;;;;5039756;28;20066;-73
2021/07/15 12:06:28;;;;;;;1999.90;999.90;;;35.60;41.80;;;;;;5027080;28;20122;-72
2021/07/15 12:09:02;;;;;;;1999.90;999.90;;;35.60;41.60;;;;;;5043967;28;20820;-73
2021/07/15 12:11:29;;;;;;;1999.90;999.90;;;35.70;41.70;;;;;;5044548;28;20028;-71
2021/07/15 12:13:55;;;;;;;1999.90;999.90;;;35.70;41.90;;;;;;5022536;28;21941;-71
2021/07/15 12:16:22;;;;;;;1999.90;999.90;;;35.70;41.50;;;;;;5044803;28;20021;-71
2021/07/15 12:18:51;;;;;;;1999.90;999.90;;;35.70;41.50;;;;;;5015308;28;20033;-70
2021/07/15 12:21:25;;;;;;;1999.90;999.90;;;35.70;41.50;;;;;;5020987;28;20025;-70
2021/07/15 12:23:51;;;;;;;1999.90;999.90;;;35.70;41.50;;;;;;5038922;28;20044;-71
2021/07/15 12:26:19;;;;;;;1999.90;999.90;;;35.80;41.80;;;;;;5032866;28;20111;-71